createdAt,value
2019-04-05T00:00:16.511Z,17.17
2019-04-05T00:02:46.138Z,14.20
2019-04-05T00:05:16.319Z,10.40
2019-04-05T00:07:45.899Z,12.77
2019-04-05T00:10:15.649Z,12.27
2019-04-05T00:12:45.162Z,15.83
2019-04-05T00:15:16.170Z,18.33
2019-04-05T00:17:45.838Z,12.27
2019-04-05T00:20:16.056Z,17.33
2019-04-05T00:22:45.523Z,14.13
2019-04-05T00:25:15.012Z,16.60
2019-04-05T00:27:44.553Z,16.07
2019-04-05T00:30:14.350Z,13.47
2019-04-05T00:32:44.077Z,13.20
2019-04-05T00:35:13.640Z,14.70
2019-04-05T00:37:43.093Z,12.30
2019-04-05T00:40:13.106Z,14.73
2019-04-05T00:42:42.558Z,14.40
2019-04-05T00:45:12.258Z,12.50
2019-04-05T00:47:41.746Z,15.30
2019-04-05T00:50:12.660Z,15.57
2019-04-05T00:52:42.212Z,13.87
2019-04-05T00:55:12.240Z,15.13
2019-04-05T00:57:42.085Z,16.40
2019-04-05T01:00:12.897Z,13.43
2019-04-05T01:02:42.369Z,14.17
2019-04-05T01:05:11.987Z,11.77
2019-04-05T01:07:41.721Z,16.80
2019-04-05T01:10:11.551Z,14.87
2019-04-05T01:12:41.765Z,14.40
2019-04-05T01:15:12.912Z,14.17
2019-04-05T01:17:42.738Z,12.67
2019-04-05T01:20:12.741Z,16.87
2019-04-05T01:22:44.549Z,16.67
2019-04-05T01:25:14.654Z,13.80
2019-04-05T01:27:44.279Z,16.37
2019-04-05T01:30:15.113Z,17.67
2019-04-05T01:32:44.832Z,12.83
2019-04-05T01:35:14.707Z,16.50
2019-04-05T01:37:44.723Z,16.40
2019-04-05T01:40:14.543Z,15.43
2019-04-05T01:42:44.360Z,12.93
2019-04-05T01:45:14.219Z,14.47
2019-04-05T01:47:43.755Z,18.03
2019-04-05T01:50:13.681Z,14.20
2019-04-05T01:52:43.644Z,16.23
2019-04-05T01:55:13.297Z,14.63
2019-04-05T01:57:42.767Z,14.80
2019-04-05T02:00:12.703Z,13.07
2019-04-05T02:02:42.433Z,15.47
2019-04-05T02:05:12.571Z,20.03
2019-04-05T02:07:42.279Z,15.67
2019-04-05T02:10:12.444Z,16.00
2019-04-05T02:12:44.036Z,16.20
2019-04-05T02:15:25.140Z,18.07
2019-04-05T02:17:55.016Z,14.23
2019-04-05T02:20:24.826Z,16.60
2019-04-05T02:22:54.542Z,16.20
2019-04-05T02:25:24.176Z,17.37
2019-04-05T02:27:53.710Z,17.37
2019-04-05T02:30:23.469Z,15.10
2019-04-05T02:32:53.175Z,14.60
2019-04-05T02:35:22.827Z,16.73
2019-04-05T02:37:52.449Z,16.87
2019-04-05T02:40:25.165Z,15.47
2019-04-05T02:42:58.305Z,18.37
2019-04-05T02:45:31.519Z,16.53
2019-04-05T02:48:04.560Z,12.30
2019-04-05T02:50:37.263Z,16.33
2019-04-05T02:53:09.156Z,18.03
2019-04-05T02:55:40.891Z,14.73
2019-04-05T02:58:12.224Z,19.10
2019-04-05T03:00:42.985Z,13.17
2019-04-05T03:03:13.513Z,14.37
2019-04-05T03:05:44.508Z,17.60
2019-04-05T03:08:14.909Z,13.60
2019-04-05T03:10:56.121Z,16.57
2019-04-05T03:13:28.991Z,13.60
2019-04-05T03:16:01.833Z,15.03
2019-04-05T03:18:33.400Z,15.60
2019-04-05T03:21:06.309Z,18.70
2019-04-05T03:23:39.273Z,16.57
2019-04-05T03:26:12.007Z,15.47
2019-04-05T03:28:43.097Z,14.77
2019-04-05T03:31:14.070Z,15.33
2019-04-05T03:33:44.325Z,17.07
2019-04-05T03:36:13.869Z,14.73
2019-04-05T03:38:43.503Z,14.13
2019-04-05T03:41:15.647Z,16.63
2019-04-05T03:43:46.366Z,17.30
2019-04-05T03:46:15.935Z,19.10
2019-04-05T03:48:46.689Z,16.10
2019-04-05T03:51:16.505Z,14.70
2019-04-05T03:53:46.335Z,18.53
2019-04-05T03:56:16.117Z,14.87
2019-04-05T03:58:46.345Z,15.27
2019-04-05T04:01:15.903Z,17.63
2019-04-05T04:03:45.482Z,17.53
2019-04-05T04:06:15.465Z,16.27
2019-04-05T04:08:45.060Z,16.87
2019-04-05T04:11:14.722Z,19.70
2019-04-05T04:13:44.408Z,18.67
2019-04-05T04:16:14.453Z,15.93
2019-04-05T04:18:44.368Z,14.43
2019-04-05T04:21:40.788Z,20.20
2019-04-05T04:24:10.826Z,16.57
2019-04-05T04:26:41.542Z,16.67
2019-04-05T04:29:11.930Z,18.17
2019-04-05T04:31:41.729Z,18.70
2019-04-05T04:34:12.351Z,18.37
2019-04-05T04:36:42.321Z,18.23
2019-04-05T04:39:12.205Z,16.50
2019-04-05T04:41:42.290Z,17.97
2019-04-05T04:44:12.005Z,20.27
2019-04-05T04:46:41.849Z,17.13
2019-04-05T04:49:11.643Z,18.10
2019-04-05T04:51:41.539Z,19.07
2019-04-05T04:54:11.645Z,15.57
2019-04-05T04:56:41.460Z,18.17
2019-04-05T04:59:11.101Z,21.67
2019-04-05T05:01:40.661Z,18.40
2019-04-05T05:04:10.518Z,19.43
2019-04-05T05:06:40.610Z,21.70
2019-04-05T05:09:10.370Z,20.77
2019-04-05T05:11:40.085Z,17.97
2019-04-05T05:14:09.743Z,18.80
2019-04-05T05:16:39.603Z,16.77
2019-04-05T05:19:09.540Z,19.23
2019-04-05T05:21:39.165Z,17.50
2019-04-05T05:24:08.856Z,17.33
2019-04-05T05:26:38.805Z,16.57
2019-04-05T05:29:08.791Z,17.10
2019-04-05T05:31:38.502Z,21.13
2019-04-05T05:34:08.395Z,21.23
2019-04-05T05:36:39.048Z,19.93
2019-04-05T05:39:08.892Z,20.67
2019-04-05T05:41:38.564Z,17.13
2019-04-05T05:44:08.211Z,19.93
2019-04-05T05:46:37.968Z,21.40
2019-04-05T05:49:07.703Z,19.07
2019-04-05T05:51:37.671Z,17.40
2019-04-05T05:54:07.156Z,20.80
2019-04-05T05:56:36.774Z,27.90
2019-04-05T05:59:06.503Z,17.13
2019-04-05T06:01:36.337Z,20.50
2019-04-05T06:04:05.991Z,18.17
2019-04-05T06:06:35.572Z,17.87
2019-04-05T06:09:07.321Z,19.40
2019-04-05T06:11:36.815Z,21.20
2019-04-05T06:14:06.485Z,20.53
2019-04-05T06:16:45.801Z,20.73
2019-04-05T06:19:07.451Z,17.30
2019-04-05T06:21:37.009Z,21.60
2019-04-05T06:24:06.647Z,25.87
2019-04-05T06:26:36.451Z,27.83
2019-04-05T06:29:06.157Z,31.03
2019-04-05T06:31:35.747Z,31.47
2019-04-05T06:34:05.517Z,33.30
2019-04-05T06:36:35.024Z,31.23
2019-04-05T06:39:07.097Z,32.63
2019-04-05T06:41:36.775Z,36.57
2019-04-05T06:44:06.529Z,33.60
2019-04-05T06:46:35.997Z,39.57
2019-04-05T06:49:05.733Z,35.87
2019-04-05T06:51:35.360Z,42.67
2019-04-05T06:54:05.129Z,39.67
2019-04-05T06:56:34.685Z,41.13
2019-04-05T06:59:04.686Z,46.10
2019-04-05T07:01:34.263Z,44.63
2019-04-05T07:04:04.085Z,44.30
2019-04-05T07:06:33.659Z,44.37
2019-04-05T07:09:05.127Z,45.37
2019-04-05T07:11:34.815Z,46.77
2019-04-05T07:14:04.363Z,46.57
2019-04-05T07:16:34.346Z,46.93
2019-04-05T07:19:04.038Z,51.47
2019-04-05T07:21:33.696Z,47.23
2019-04-05T07:24:03.171Z,50.33
2019-04-05T07:26:32.728Z,52.07
2019-04-05T07:29:02.324Z,49.50
2019-04-05T07:31:31.921Z,51.30
2019-04-05T07:34:01.565Z,49.50
2019-04-05T07:36:31.246Z,52.80
2019-04-05T07:39:00.718Z,53.53
2019-04-05T07:41:31.814Z,49.57
2019-04-05T07:44:01.591Z,54.67
2019-04-05T07:46:31.317Z,54.90
2019-04-05T07:49:00.921Z,56.57
2019-04-05T07:51:30.500Z,65.70
2019-04-05T07:54:00.037Z,57.27
2019-04-05T07:56:29.577Z,60.97
2019-04-05T07:58:59.274Z,60.80
2019-04-05T08:01:30.223Z,58.87
2019-04-05T08:03:59.937Z,58.43
2019-04-05T08:06:31.003Z,66.83
2019-04-05T08:09:07.785Z,70.33
2019-04-05T08:11:38.747Z,58.63
2019-04-05T08:14:10.001Z,62.33
2019-04-05T08:16:39.632Z,60.67
2019-04-05T08:19:09.247Z,60.80
2019-04-05T08:21:39.752Z,65.57
2019-04-05T08:24:09.397Z,65.00
2019-04-05T08:26:38.981Z,73.60
2019-04-05T08:29:08.627Z,64.47
2019-04-05T08:31:38.209Z,62.93
2019-04-05T08:34:08.141Z,65.27
2019-04-05T08:36:37.715Z,69.50
2019-04-05T08:39:08.494Z,63.63
2019-04-05T08:41:38.228Z,65.40
2019-04-05T08:44:07.992Z,67.77
2019-04-05T08:46:37.944Z,66.30
2019-04-05T08:49:11.463Z,63.83
2019-04-05T08:51:40.601Z,74.57
2019-04-05T08:54:10.261Z,71.53
2019-04-05T08:56:40.589Z,75.97
2019-04-05T08:59:10.211Z,71.97
2019-04-05T09:01:40.112Z,70.83
2019-04-05T09:04:09.742Z,76.07
2019-04-05T09:06:40.494Z,74.60
2019-04-05T09:09:10.451Z,74.97
2019-04-05T09:11:40.208Z,76.47
2019-04-05T09:14:09.787Z,81.80
2019-04-05T09:16:39.300Z,80.27
2019-04-05T09:19:08.843Z,76.97
2019-04-05T09:21:40.391Z,73.87
2019-04-05T09:24:09.814Z,80.90
2019-04-05T09:26:39.473Z,83.27
2019-04-05T09:29:09.556Z,76.60
2019-04-05T09:31:39.343Z,72.83
2019-04-05T09:34:09.043Z,83.47
2019-04-05T09:36:38.660Z,79.07
2019-04-05T09:39:15.330Z,73.47
2019-04-05T09:41:42.100Z,79.27
2019-04-05T09:44:11.871Z,75.87
2019-04-05T09:46:47.944Z,71.37
2019-04-05T09:49:12.901Z,78.80
2019-04-05T09:51:42.527Z,83.70
2019-04-05T09:54:12.225Z,77.57
2019-04-05T09:56:44.087Z,80.47
2019-04-05T09:59:13.759Z,70.40
2019-04-05T10:01:43.266Z,79.13
2019-04-05T10:04:12.937Z,85.80
2019-04-05T10:06:42.633Z,86.47
2019-04-05T10:09:12.614Z,72.27
2019-04-05T10:11:42.513Z,82.00
2019-04-05T10:14:12.004Z,89.80
2019-04-05T10:16:41.722Z,82.07
2019-04-05T10:19:11.249Z,88.70
2019-04-05T10:21:40.836Z,82.77
2019-04-05T10:24:10.655Z,77.20
2019-04-05T10:26:40.399Z,82.80
2019-04-05T10:29:09.992Z,82.00
2019-04-05T10:31:39.605Z,74.70
2019-04-05T10:34:09.180Z,84.37
2019-04-05T10:36:38.734Z,85.33
2019-04-05T10:39:10.438Z,79.73
2019-04-05T10:41:40.087Z,80.27
2019-04-05T10:44:12.924Z,79.40
2019-04-05T10:46:42.400Z,75.27
2019-04-05T10:49:14.942Z,81.53
2019-04-05T10:51:43.297Z,73.67
2019-04-05T10:54:14.826Z,77.33
2019-04-05T10:56:44.239Z,72.40
2019-04-05T10:59:13.825Z,70.23
2019-04-05T11:01:43.687Z,61.43
2019-04-05T11:04:13.293Z,61.57
2019-04-05T11:06:42.996Z,68.67
2019-04-05T11:09:12.469Z,75.67
2019-04-05T11:11:42.010Z,68.07
2019-04-05T11:14:13.968Z,69.53
2019-04-05T11:16:42.820Z,67.40
2019-04-05T11:19:13.313Z,64.00
2019-04-05T11:21:42.995Z,63.13
2019-04-05T11:24:13.940Z,56.17
2019-04-05T11:26:43.411Z,58.27
2019-04-05T11:29:14.454Z,60.93
2019-04-05T11:31:56.216Z,57.57
2019-04-05T11:34:15.477Z,55.90
2019-04-05T11:36:45.527Z,51.80
2019-04-05T11:39:15.161Z,50.17
2019-04-05T11:41:45.766Z,47.47
2019-04-05T11:44:15.507Z,48.80
2019-04-05T11:46:49.106Z,49.87
2019-04-05T11:49:17.585Z,53.13
2019-04-05T11:51:48.060Z,52.23
2019-04-05T11:54:18.493Z,50.83
2019-04-05T11:56:48.058Z,55.20
2019-04-05T11:59:17.521Z,51.77
2019-04-05T12:02:05.698Z,50.03
2019-04-05T12:04:35.235Z,49.70
2019-04-05T12:07:04.988Z,51.70
2019-04-05T12:09:34.684Z,53.43
2019-04-05T12:12:04.263Z,48.47
2019-04-05T12:14:36.372Z,50.03
2019-04-05T12:17:05.564Z,51.20
2019-04-05T12:19:38.114Z,46.60
2019-04-05T12:22:09.176Z,55.00
2019-04-05T12:24:38.513Z,52.67
2019-04-05T12:27:09.115Z,54.10
2019-04-05T12:29:38.592Z,53.87
2019-04-05T12:32:08.063Z,51.33
2019-04-05T12:34:37.628Z,52.10
2019-04-05T12:37:08.374Z,54.60
2019-04-05T12:39:37.888Z,51.27
2019-04-05T12:42:07.519Z,52.90
2019-04-05T12:44:37.064Z,54.27
2019-04-05T12:47:19.114Z,54.37
2019-04-05T12:49:48.793Z,52.77
2019-04-05T12:52:23.014Z,56.47
2019-04-05T12:54:54.111Z,47.87
2019-04-05T12:57:20.675Z,51.73
2019-04-05T12:59:51.489Z,48.07
2019-04-05T13:02:33.085Z,48.87
2019-04-05T13:04:52.551Z,49.30
2019-04-05T13:07:22.792Z,54.77
2019-04-05T13:09:55.060Z,53.80
2019-04-05T13:12:26.233Z,48.40
2019-04-05T13:15:00.129Z,51.67
2019-04-05T13:17:26.579Z,50.80
2019-04-05T13:19:56.012Z,53.97
2019-04-05T13:22:25.684Z,52.83
2019-04-05T13:24:55.116Z,48.80
2019-04-05T13:27:24.971Z,51.23
2019-04-05T13:29:54.448Z,50.67
2019-04-05T13:32:24.325Z,54.23
2019-04-05T13:34:55.722Z,47.13
2019-04-05T13:37:25.949Z,46.83
2019-04-05T13:39:55.484Z,49.90
2019-04-05T13:42:25.106Z,48.97
2019-04-05T13:44:54.567Z,48.43
2019-04-05T13:47:24.165Z,50.03
2019-04-05T13:49:53.668Z,52.80
2019-04-05T13:52:23.126Z,50.20
2019-04-05T13:54:52.570Z,50.43
2019-04-05T13:57:21.996Z,48.33
2019-04-05T13:59:51.462Z,51.27
2019-04-05T14:02:21.605Z,46.97
2019-04-05T14:04:53.629Z,53.77
2019-04-05T14:07:24.530Z,53.40
2019-04-05T14:09:53.852Z,49.33
2019-04-05T14:12:23.288Z,50.07
2019-04-05T14:14:52.780Z,49.37
2019-04-05T14:17:22.204Z,50.47
2019-04-05T14:19:51.707Z,47.97
2019-04-05T14:22:22.528Z,49.27
2019-04-05T14:24:56.432Z,52.00
2019-04-05T14:27:23.826Z,46.87
2019-04-05T14:29:53.256Z,55.60
2019-04-05T14:32:22.762Z,50.13
2019-04-05T14:34:54.771Z,46.47
2019-04-05T14:37:25.307Z,58.07
2019-04-05T14:40:01.571Z,51.30
2019-04-05T14:42:31.179Z,51.00
2019-04-05T14:45:00.622Z,49.70
2019-04-05T14:47:30.141Z,48.17
2019-04-05T14:50:00.976Z,54.13
2019-04-05T14:52:31.137Z,50.20
2019-04-05T14:55:01.318Z,46.93
2019-04-05T14:57:32.612Z,47.67
2019-04-05T15:00:02.034Z,46.50
2019-04-05T15:02:31.625Z,46.20
2019-04-05T15:05:01.136Z,56.37
2019-04-05T15:07:30.663Z,46.37
2019-04-05T15:10:03.379Z,52.50
2019-04-05T15:12:31.405Z,47.77
2019-04-05T15:15:00.902Z,53.60
2019-04-05T15:17:30.338Z,45.17
2019-04-05T15:19:59.754Z,47.07
2019-04-05T15:22:29.250Z,46.27
2019-04-05T15:24:58.686Z,49.53
2019-04-05T15:27:28.277Z,46.90
2019-04-05T15:29:57.724Z,47.20
2019-04-05T15:32:27.440Z,47.80
2019-04-05T15:34:58.998Z,48.13
2019-04-05T15:37:31.790Z,45.43
2019-04-05T15:40:00.446Z,50.17
2019-04-05T15:42:30.450Z,52.53
2019-04-05T15:44:59.950Z,44.50
2019-04-05T15:47:31.785Z,45.80
2019-04-05T15:50:00.703Z,44.30
2019-04-05T15:52:32.075Z,46.63
2019-04-05T15:55:01.716Z,43.97
2019-04-05T15:57:34.290Z,46.13
2019-04-05T16:00:06.622Z,51.60
2019-04-05T16:02:36.082Z,46.60
2019-04-05T16:05:06.511Z,53.50
2019-04-05T16:07:35.959Z,46.63
2019-04-05T16:10:06.398Z,46.03
2019-04-05T16:12:36.079Z,48.33
2019-04-05T16:15:06.821Z,46.57
2019-04-05T16:17:36.288Z,41.17
2019-04-05T16:20:06.935Z,43.50
2019-04-05T16:22:36.779Z,48.73
2019-04-05T16:25:07.107Z,45.97
2019-04-05T16:27:36.666Z,43.57
2019-04-05T16:30:07.533Z,47.57
2019-04-05T16:32:36.986Z,49.73
2019-04-05T16:35:06.620Z,47.03
2019-04-05T16:37:36.125Z,50.27
2019-04-05T16:40:05.999Z,46.20
2019-04-05T16:42:35.553Z,48.43
2019-04-05T16:45:06.310Z,48.40
2019-04-05T16:47:35.924Z,45.63
2019-04-05T16:50:06.224Z,46.80
2019-04-05T16:52:44.757Z,60.63
2019-04-05T16:55:07.947Z,45.03
2019-04-05T16:57:37.924Z,48.83
2019-04-05T17:00:09.213Z,46.80
2019-04-05T17:02:38.789Z,50.07
2019-04-05T17:05:08.782Z,49.00
2019-04-05T17:07:38.255Z,51.77
2019-04-05T17:10:07.947Z,44.73
2019-04-05T17:12:37.469Z,50.80
2019-04-05T17:15:07.666Z,54.73
2019-04-05T17:17:37.280Z,51.43
2019-04-05T17:20:07.331Z,48.27
2019-04-05T17:22:36.833Z,59.63
2019-04-05T17:25:06.929Z,51.20
2019-04-05T17:27:36.452Z,48.73
2019-04-05T17:30:06.493Z,48.73
2019-04-05T17:32:36.312Z,57.67
2019-04-05T17:35:06.630Z,45.13
2019-04-05T17:37:36.237Z,65.33
2019-04-05T17:40:06.667Z,57.50
2019-04-05T17:42:36.149Z,57.17
2019-04-05T17:45:06.995Z,51.53
2019-04-05T17:47:36.626Z,48.17
2019-04-05T17:50:10.397Z,57.47
2019-04-05T17:52:39.210Z,53.23
2019-04-05T17:55:08.896Z,50.43
2019-04-05T17:57:38.395Z,54.90
2019-04-05T18:00:10.330Z,59.90
2019-04-05T18:02:39.795Z,57.47
2019-04-05T18:05:09.592Z,50.43
2019-04-05T18:07:39.017Z,57.87
2019-04-05T18:10:08.760Z,57.20
2019-04-05T18:12:38.334Z,52.07
2019-04-05T18:15:07.913Z,66.23
2019-04-05T18:17:37.360Z,60.00
2019-04-05T18:20:09.638Z,53.90
2019-04-05T18:22:38.250Z,53.47
2019-04-05T18:25:07.859Z,53.73
2019-04-05T18:27:37.367Z,52.17
2019-04-05T18:30:07.559Z,52.70
2019-04-05T18:32:37.097Z,49.03
2019-04-05T18:35:06.884Z,52.40
2019-04-05T18:37:36.485Z,51.63
2019-04-05T18:40:06.370Z,53.60
2019-04-05T18:42:35.820Z,53.73
2019-04-05T18:45:06.302Z,57.73
2019-04-05T18:47:35.766Z,53.20
2019-04-05T18:50:05.867Z,51.60
2019-04-05T18:52:35.306Z,50.50
2019-04-05T18:55:04.922Z,52.47
2019-04-05T18:57:34.466Z,54.33
2019-04-05T19:00:04.718Z,51.20
2019-04-05T19:02:34.182Z,57.17
2019-04-05T19:05:04.324Z,55.07
2019-04-05T19:07:33.836Z,54.47
2019-04-05T19:10:03.412Z,55.23
2019-04-05T19:12:33.013Z,55.70
2019-04-05T19:15:02.521Z,57.97
2019-04-05T19:17:32.021Z,53.03
2019-04-05T19:20:01.470Z,59.87
2019-04-05T19:22:30.940Z,55.67
2019-04-05T19:25:00.394Z,71.67
2019-04-05T19:27:29.927Z,59.17
2019-04-05T19:29:59.398Z,59.93
2019-04-05T19:50:10.019Z,49.97
2019-04-05T19:52:39.551Z,50.93
2019-04-05T19:55:09.389Z,50.77
2019-04-05T19:57:38.864Z,53.33
2019-04-05T20:00:09.066Z,52.90
2019-04-05T20:02:38.563Z,48.03
2019-04-05T20:05:08.430Z,53.57
2019-04-05T20:07:37.916Z,52.80
2019-04-05T20:10:07.679Z,52.10
2019-04-05T20:12:37.143Z,51.57
2019-04-05T20:15:08.022Z,47.87
2019-04-05T20:17:37.565Z,53.33
2019-04-05T20:20:10.899Z,52.47
2019-04-05T20:22:40.338Z,56.90
2019-04-05T20:25:10.242Z,51.73
2019-04-05T20:27:39.756Z,54.97
2019-04-05T20:30:09.661Z,53.90
2019-04-05T20:32:39.238Z,50.90
2019-04-05T20:35:08.873Z,50.70
2019-04-05T20:37:40.042Z,54.20
2019-04-05T20:40:09.971Z,50.40
2019-04-05T20:42:39.521Z,52.67
2019-04-05T20:45:09.226Z,49.63
2019-04-05T20:47:38.687Z,45.27
2019-04-05T20:50:08.612Z,42.43
2019-04-05T20:52:38.189Z,47.67
2019-04-05T20:55:07.864Z,44.00
2019-04-05T20:57:37.315Z,48.63
2019-04-05T21:00:08.681Z,47.37
2019-04-05T21:02:38.158Z,48.30
2019-04-05T21:05:07.804Z,43.60
2019-04-05T21:07:37.273Z,46.07
2019-04-05T21:10:07.350Z,46.47
2019-04-05T21:12:36.893Z,48.13
2019-04-05T21:15:06.634Z,46.57
2019-04-05T21:17:36.109Z,52.47
2019-04-05T21:20:06.246Z,52.87
2019-04-05T21:22:35.675Z,42.00
2019-04-05T21:25:05.939Z,51.60
2019-04-05T21:27:35.380Z,48.27
2019-04-05T21:30:05.808Z,51.10
2019-04-05T21:32:35.227Z,47.10
2019-04-05T21:35:05.341Z,44.10
2019-04-05T21:37:34.829Z,51.87
2019-04-05T21:40:05.043Z,50.40
2019-04-05T21:42:34.487Z,51.83
2019-04-05T21:45:04.299Z,50.23
2019-04-05T21:47:33.751Z,46.60
2019-04-05T21:50:03.405Z,44.60
2019-04-05T21:52:32.834Z,46.63
2019-04-05T21:55:02.486Z,45.60
2019-04-05T21:57:32.078Z,49.97
2019-04-05T22:00:01.600Z,49.57
2019-04-05T22:02:31.195Z,46.90
2019-04-05T22:05:01.378Z,51.40
2019-04-05T22:07:31.037Z,55.30
2019-04-05T22:10:00.450Z,47.70
2019-04-05T22:12:29.890Z,49.00
2019-04-05T22:14:59.330Z,52.30
2019-04-05T22:17:29.002Z,48.70
2019-04-05T22:19:58.426Z,47.33
2019-04-05T22:22:27.914Z,55.50
2019-04-05T22:24:59.598Z,48.33
2019-04-05T22:27:28.510Z,51.07
2019-04-05T22:29:58.019Z,49.90
2019-04-05T22:32:27.530Z,49.80
2019-04-05T22:34:56.940Z,47.37
2019-04-05T22:37:26.468Z,52.03
2019-04-05T22:42:43.545Z,50.47
2019-04-05T22:45:13.478Z,48.47
2019-04-05T22:47:42.984Z,48.70
2019-04-05T22:50:12.800Z,48.17
2019-04-05T22:52:47.915Z,58.03
2019-04-05T22:55:17.619Z,50.97
2019-04-05T22:57:47.050Z,52.30
2019-04-05T23:00:17.057Z,47.10
2019-04-05T23:02:46.515Z,49.37
2019-04-05T23:05:15.947Z,46.03
2019-04-05T23:07:45.429Z,45.47
2019-04-05T23:10:14.940Z,52.37
2019-04-05T23:12:44.431Z,50.00
2019-04-05T23:15:14.006Z,48.10
2019-04-05T23:17:43.440Z,48.47
2019-04-05T23:20:13.235Z,44.63
2019-04-05T23:22:42.685Z,43.73
2019-04-05T23:25:21.479Z,41.10
2019-04-05T23:27:43.481Z,46.37
2019-04-05T23:30:14.395Z,41.73
2019-04-05T23:32:43.831Z,39.90
2019-04-05T23:35:13.567Z,40.67
2019-04-05T23:37:43.026Z,45.13
2019-04-05T23:40:12.962Z,42.33
2019-04-05T23:42:42.393Z,47.17
2019-04-05T23:45:12.330Z,42.33
2019-04-05T23:47:41.829Z,47.50
2019-04-05T23:50:12.885Z,45.30
2019-04-05T23:52:42.467Z,41.60
2019-04-05T23:55:12.018Z,39.30
2019-04-05T23:57:41.526Z,44.33
